Ana Sayfa
METAR-TAF:

METAR-TAF

Havaalanları :

Nagazaki, Japonya

Enlem: 32-55N, Boylam: 129-55E, yükseklik: 2 m

Güncel hava durumu gözlemi

Rapor saat 07:00 UTC de 37 dakika önce yapıldı.
Rüzgar kuzeybatıdan 23 kt
Sıcaklık 8°C
Nem 49%
Basınç 1018 hPa
Görüş mesafesi 10 km veya daha fazla
4000 ft yükseklikte az bulutlu
parçalı çok bulutlu

METAR: RJFU 010700Z 31023KT 9999 FEW040 BKN/// 08/M02 Q1018

Saat: 16:37 (07:37 UTC)

Tahmin

Rapor saat 05:07 UTC de 2 saat ve 30 dakika önce yapıldı.
Ayın 01'si saat 06 UTC'den ayın 02'si saat 12 UTC'ye kadar geçerli Tahmin
Rüzgar kuzeybatıdan 19 kt
Görüş mesafesi 10 km veya daha fazla
3000 ft yükseklikte az bulutlu
Dönüşüyor
ayın 02'si saat 09 UTC'den ayın 02'si saat 12 UTC'ye kadar
Rüzgar batı/güneybatıdan 5 kt

TAF: RJFU 010507Z 0106/0212 32019KT 9999 FEW030 BECMG 0209/0212 24005KT

4.000'den fazla havaalanı için hava durumu gözlemleri ve tahminleri (METAR ve TAF raporları).

Kullanılabilir istasyonlar harita üzerinde sarı ve kırmızı noktalarla gösterilir.

İstasyonun adını görmek için fareyi noktanın üzerinde gezdirin.

Sonrasında hava gözlem ve tahminlerini görmek için tıklayın.

Haritayı değiştirmek için: yaklaştırmak için siyah artı işaretli yeşil düğmeye ve uzaklaştırmak için de eksi işaretli düğmeye hızla tıklayın; bitişik haritalar için yeşil okları kullanın.


METAR-TAF: